Time;durP1;ratioP1;P1;durP2;ratioP2;P2;SDS_P1;SDS_P2;PMS_P1;PMS_P2;Temp;Humidity;BMP_temperature;BMP_pressure;BME280_temperature;BME280_humidity;BME280_pressure;Samples;Min_cycle;Max_cycle;Signal;HPM_P1;HPM_P2
2022/04/08 00:01:37;;;;;;;2.40;1.50;;;5.70;99.90;;;;;;5114184;28;20204;-61
2022/04/08 00:04:04;;;;;;;3.92;2.33;;;5.70;99.90;;;;;;5113607;28;20193;-61
2022/04/08 00:06:31;;;;;;;2.10;1.80;;;5.70;99.90;;;;;;5113340;28;20679;-61
2022/04/08 00:08:58;;;;;;;1.85;1.75;;;5.70;99.90;;;;;;5113465;28;20203;-60
2022/04/08 00:11:26;;;;;;;3.70;1.38;;;5.70;99.90;;;;;;5113842;28;20210;-62
2022/04/08 00:13:54;;;;;;;7.80;1.73;;;5.80;99.90;;;;;;5113350;28;20215;-60
2022/04/08 00:16:21;;;;;;;4.53;1.33;;;5.70;99.90;;;;;;5113637;28;20203;-62
2022/04/08 00:18:48;;;;;;;4.60;1.88;;;5.80;99.90;;;;;;5113659;28;20210;-61
2022/04/08 00:21:16;;;;;;;3.90;1.70;;;5.70;99.90;;;;;;5113309;28;20208;-61
2022/04/08 00:23:43;;;;;;;1.27;1.17;;;5.70;99.90;;;;;;5113387;28;20663;-61
2022/04/08 00:26:11;;;;;;;2.83;1.30;;;5.70;99.90;;;;;;5117922;28;20203;-60
2022/04/08 00:28:39;;;;;;;3.83;1.42;;;5.60;99.90;;;;;;5118495;28;20231;-61
2022/04/08 00:31:06;;;;;;;2.85;1.30;;;5.70;99.90;;;;;;5118594;28;20201;-60
2022/04/08 00:33:34;;;;;;;3.53;1.35;;;5.60;99.90;;;;;;5118741;28;20203;-60
2022/04/08 00:36:01;;;;;;;3.58;1.35;;;5.70;99.90;;;;;;5118153;28;20683;-60
2022/04/08 00:38:28;;;;;;;2.55;1.00;;;5.70;99.90;;;;;;5118493;28;20228;-61
2022/04/08 00:40:55;;;;;;;1.83;1.10;;;5.70;99.90;;;;;;5118405;28;20200;-61
2022/04/08 00:43:33;;;;;;;1.40;0.80;;;5.70;99.90;;;;;;5118707;28;20208;-61
2022/04/08 00:46:02;;;;;;;2.20;1.42;;;5.70;99.90;;;;;;5118839;28;20207;-60
2022/04/08 00:48:30;;;;;;;2.70;1.60;;;5.80;99.90;;;;;;5117935;28;20297;-60
2022/04/08 00:50:57;;;;;;;1.48;1.25;;;5.80;99.90;;;;;;5118178;28;20664;-60
2022/04/08 00:53:25;;;;;;;2.03;1.00;;;5.80;99.90;;;;;;5118470;28;20205;-60
2022/04/08 00:55:52;;;;;;;3.10;1.52;;;5.90;99.90;;;;;;5117910;28;20731;-60
2022/04/08 00:58:20;;;;;;;4.03;1.55;;;5.90;99.90;;;;;;5117736;28;20310;-60
2022/04/08 01:00:47;;;;;;;3.80;1.20;;;5.80;99.90;;;;;;5118399;28;20205;-61
2022/04/08 01:03:15;;;;;;;4.15;1.65;;;5.80;99.90;;;;;;5117889;28;20208;-61
2022/04/08 01:05:43;;;;;;;3.65;1.63;;;5.80;99.90;;;;;;5119088;28;20196;-61
2022/04/08 01:08:11;;;;;;;2.95;1.15;;;5.70;99.90;;;;;;5119163;28;20232;-61
2022/04/08 01:10:39;;;;;;;3.63;1.60;;;5.70;99.90;;;;;;5118948;28;20197;-61
2022/04/08 01:13:07;;;;;;;3.65;1.60;;;5.70;99.90;;;;;;5118742;28;20229;-61
2022/04/08 01:15:34;;;;;;;1.10;1.00;;;5.60;99.90;;;;;;5118163;28;20232;-61
2022/04/08 01:18:01;;;;;;;3.58;2.10;;;5.60;99.90;;;;;;5117245;28;20223;-60
2022/04/08 01:20:29;;;;;;;3.20;1.63;;;5.60;99.90;;;;;;5118632;28;20204;-61
2022/04/08 01:22:56;;;;;;;7.18;2.47;;;5.60;99.90;;;;;;5117315;28;20599;-61
2022/04/08 01:25:25;;;;;;;3.78;1.70;;;5.60;99.90;;;;;;5116897;28;20213;-60
2022/04/08 01:27:52;;;;;;;4.80;1.80;;;5.60;99.90;;;;;;5117278;28;20614;-61
2022/04/08 01:30:19;;;;;;;6.47;2.05;;;5.60;99.90;;;;;;5117161;28;20211;-60
2022/04/08 01:32:46;;;;;;;3.35;1.58;;;5.60;99.90;;;;;;5118671;28;20572;-60
2022/04/08 01:35:13;;;;;;;4.10;2.20;;;5.60;99.90;;;;;;5118216;28;20235;-61
2022/04/08 01:37:40;;;;;;;2.42;1.50;;;5.60;99.90;;;;;;5117938;28;20292;-60
2022/04/08 01:40:09;;;;;;;4.95;1.67;;;5.60;99.90;;;;;;5137567;28;20199;-61
2022/04/08 01:42:37;;;;;;;1.90;1.55;;;5.60;99.90;;;;;;5136941;28;20226;-61
2022/04/08 01:45:05;;;;;;;5.32;1.50;;;5.70;99.90;;;;;;5136856;28;20682;-61
2022/04/08 01:47:32;;;;;;;2.88;1.50;;;5.70;99.90;;;;;;5134292;28;20219;-61
2022/04/08 01:49:59;;;;;;;3.55;2.05;;;5.70;99.90;;;;;;5121737;28;20216;-61
2022/04/08 01:52:26;;;;;;;3.90;2.00;;;5.70;99.90;;;;;;5118700;28;20196;-61
2022/04/08 01:54:54;;;;;;;1.95;1.38;;;5.70;99.90;;;;;;5116506;28;20216;-60
2022/04/08 01:57:23;;;;;;;4.40;1.70;;;5.70;99.90;;;;;;5116109;28;20228;-60
2022/04/08 01:59:52;;;;;;;5.55;2.15;;;5.70;99.90;;;;;;5115838;28;20299;-60
2022/04/08 02:02:20;;;;;;;8.80;2.53;;;5.60;99.90;;;;;;5116427;28;20204;-60
2022/04/08 02:04:47;;;;;;;3.17;1.80;;;5.60;99.90;;;;;;5116063;28;20196;-61
2022/04/08 02:07:14;;;;;;;4.97;2.28;;;5.60;99.90;;;;;;5116016;28;20219;-61
2022/04/08 02:09:41;;;;;;;4.35;1.90;;;5.60;99.90;;;;;;5116030;28;20203;-61
2022/04/08 02:12:09;;;;;;;4.28;1.77;;;5.50;99.90;;;;;;5115945;28;20205;-61
2022/04/08 02:14:36;;;;;;;5.70;3.10;;;5.60;99.90;;;;;;5115989;28;20221;-61
2022/04/08 02:17:05;;;;;;;2.70;1.98;;;5.50;99.90;;;;;;5115975;28;20644;-61
2022/04/08 02:19:32;;;;;;;3.38;1.45;;;5.50;99.90;;;;;;5116279;28;20205;-61
2022/04/08 02:21:59;;;;;;;5.07;2.20;;;5.50;99.90;;;;;;5115766;28;20208;-60
2022/04/08 02:24:26;;;;;;;6.80;2.55;;;5.50;99.90;;;;;;5115750;28;20230;-62
2022/04/08 02:26:54;;;;;;;3.05;1.63;;;5.50;99.90;;;;;;5115530;28;20220;-60
2022/04/08 02:29:21;;;;;;;2.83;1.70;;;5.40;99.90;;;;;;5115590;28;20201;-61
2022/04/08 02:31:48;;;;;;;1.95;1.45;;;5.40;99.90;;;;;;5116132;28;20205;-60
2022/04/08 02:34:17;;;;;;;7.95;2.25;;;5.40;99.90;;;;;;5115636;28;20211;-60
2022/04/08 02:36:45;;;;;;;5.18;2.10;;;5.30;99.90;;;;;;5115346;28;20216;-61
2022/04/08 02:39:12;;;;;;;3.03;1.67;;;5.30;99.90;;;;;;5115786;28;20199;-61
2022/04/08 02:41:39;;;;;;;6.63;2.38;;;5.30;99.90;;;;;;5115819;28;20211;-61
2022/04/08 02:44:08;;;;;;;3.55;1.98;;;5.30;99.90;;;;;;5115787;28;20570;-61
2022/04/08 02:46:35;;;;;;;5.28;2.00;;;5.30;99.90;;;;;;5115471;28;20206;-61
2022/04/08 02:49:02;;;;;;;5.22;1.50;;;5.30;99.90;;;;;;5114084;28;20205;-61
2022/04/08 02:51:31;;;;;;;1.70;1.58;;;5.30;99.90;;;;;;5115241;28;20201;-61
2022/04/08 02:53:58;;;;;;;3.20;1.70;;;5.30;99.90;;;;;;5114960;28;20199;-61
2022/04/08 02:56:25;;;;;;;3.08;1.63;;;5.30;99.90;;;;;;5115016;28;20224;-61
2022/04/08 02:58:52;;;;;;;4.38;1.63;;;5.30;99.90;;;;;;5115182;28;20203;-61
2022/04/08 03:01:19;;;;;;;5.90;2.15;;;5.30;99.90;;;;;;5114657;28;20290;-61
2022/04/08 03:03:46;;;;;;;7.75;2.30;;;5.30;99.90;;;;;;5115124;28;20211;-61
2022/04/08 03:06:13;;;;;;;5.43;1.52;;;5.30;99.90;;;;;;5115135;28;20223;-61
2022/04/08 03:08:42;;;;;;;5.05;2.10;;;5.30;99.90;;;;;;5114824;28;20220;-60
2022/04/08 03:11:09;;;;;;;6.10;1.80;;;5.30;99.90;;;;;;5114984;28;20212;-61
2022/04/08 03:13:36;;;;;;;3.80;1.55;;;5.40;99.90;;;;;;5114869;28;20201;-60
2022/04/08 03:16:03;;;;;;;2.97;1.52;;;5.40;99.90;;;;;;5114879;28;20216;-61
2022/04/08 03:18:30;;;;;;;3.00;1.50;;;5.40;99.90;;;;;;5114618;28;20726;-61
2022/04/08 03:20:57;;;;;;;4.53;1.92;;;5.40;99.90;;;;;;5114506;28;20214;-60
2022/04/08 03:23:24;;;;;;;7.95;2.13;;;5.50;99.90;;;;;;5114856;28;20196;-60
2022/04/08 03:25:53;;;;;;;3.92;1.60;;;5.40;99.90;;;;;;5115026;28;20201;-61
2022/04/08 03:28:20;;;;;;;8.95;2.28;;;5.50;99.90;;;;;;5114825;28;20220;-60
2022/04/08 03:30:47;;;;;;;6.57;1.67;;;5.50;99.90;;;;;;5114954;28;20199;-61
2022/04/08 03:33:14;;;;;;;5.72;1.67;;;5.50;99.90;;;;;;5114188;28;20204;-61
2022/04/08 03:35:41;;;;;;;4.40;2.08;;;5.50;99.90;;;;;;5113991;28;20249;-61
2022/04/08 03:38:08;;;;;;;4.85;1.88;;;5.50;99.90;;;;;;5114139;28;20746;-61
2022/04/08 03:40:36;;;;;;;3.78;2.42;;;5.50;99.90;;;;;;5114203;28;20213;-61
2022/04/08 03:43:05;;;;;;;4.40;2.00;;;5.60;99.90;;;;;;5114392;28;20631;-60
2022/04/08 03:45:32;;;;;;;6.60;2.15;;;5.50;99.90;;;;;;5114457;28;20200;-60
2022/04/08 03:47:59;;;;;;;2.95;1.80;;;5.50;99.90;;;;;;5114081;28;20294;-60
2022/04/08 03:50:26;;;;;;;6.00;2.05;;;5.60;99.90;;;;;;5114221;28;20578;-61
2022/04/08 03:52:53;;;;;;;8.48;2.03;;;5.60;99.90;;;;;;5114309;28;20200;-60
2022/04/08 03:55:20;;;;;;;4.20;2.40;;;5.60;99.90;;;;;;5115147;28;20213;-61
2022/04/08 03:57:48;;;;;;;9.48;2.20;;;5.60;99.90;;;;;;5114731;28;20232;-61
2022/04/08 04:00:17;;;;;;;3.70;2.10;;;5.60;99.90;;;;;;5114217;28;20629;-59
2022/04/08 04:02:44;;;;;;;4.85;1.90;;;5.50;99.90;;;;;;5114244;28;20575;-60
2022/04/08 04:05:12;;;;;;;4.25;1.90;;;5.50;99.90;;;;;;5114001;28;20562;-61
2022/04/08 04:09:37;;;;;;;3.45;1.70;;;5.40;99.90;;;;;;5091374;27;20548;-61
2022/04/08 04:12:05;;;;;;;2.90;1.85;;;5.30;99.90;;;;;;5090488;28;20665;-61
2022/04/08 04:14:32;;;;;;;3.63;1.98;;;5.10;99.90;;;;;;5090815;28;20202;-61
2022/04/08 04:16:59;;;;;;;3.20;1.90;;;5.00;99.90;;;;;;5090547;28;20586;-61
2022/04/08 04:19:26;;;;;;;3.17;1.40;;;4.90;99.90;;;;;;5090331;28;20705;-62
2022/04/08 04:21:53;;;;;;;1.10;1.00;;;4.70;99.90;;;;;;5090687;28;20212;-62
2022/04/08 04:24:20;;;;;;;1.30;0.85;;;4.40;99.90;;;;;;5090248;28;20205;-62
2022/04/08 04:26:49;;;;;;;0.93;0.82;;;4.10;99.90;;;;;;5090356;28;20228;-61
2022/04/08 04:29:16;;;;;;;1.85;1.10;;;3.90;99.90;;;;;;5090370;28;20593;-60
2022/04/08 04:31:43;;;;;;;1.63;1.52;;;3.80;99.90;;;;;;5090898;28;20227;-61
2022/04/08 04:34:10;;;;;;;1.20;1.10;;;3.70;99.90;;;;;;5090355;28;20215;-61
2022/04/08 04:36:37;;;;;;;1.80;1.00;;;3.70;99.90;;;;;;5090513;28;20200;-61
2022/04/08 04:39:04;;;;;;;1.67;1.13;;;3.70;99.90;;;;;;5090639;28;20200;-61
2022/04/08 04:41:32;;;;;;;2.67;1.45;;;3.70;99.90;;;;;;5090750;28;20200;-60
2022/04/08 04:44:00;;;;;;;3.55;1.38;;;3.70;99.90;;;;;;5090485;28;20687;-61
2022/04/08 04:46:27;;;;;;;3.85;1.00;;;3.70;99.90;;;;;;5090667;28;20211;-60
2022/04/08 04:48:54;;;;;;;5.63;1.55;;;3.70;99.90;;;;;;5090861;28;20275;-61
2022/04/08 04:51:21;;;;;;;2.13;1.60;;;3.70;99.90;;;;;;5094025;28;20197;-60
2022/04/08 04:53:48;;;;;;;3.25;1.20;;;3.70;99.90;;;;;;5097098;28;20200;-61
2022/04/08 04:56:15;;;;;;;3.60;1.25;;;3.80;99.90;;;;;;5095327;28;20205;-60
2022/04/08 04:58:42;;;;;;;3.75;1.30;;;3.80;99.90;;;;;;5090580;22;20241;-55
2022/04/08 05:01:11;;;;;;;5.38;1.50;;;3.80;99.90;;;;;;5049363;28;20213;-55
2022/04/08 05:03:38;;;;;;;2.08;1.40;;;3.80;99.90;;;;;;5049934;28;20213;-53
2022/04/08 05:06:05;;;;;;;1.92;1.10;;;3.80;99.90;;;;;;5049655;28;20233;-53
2022/04/08 05:08:32;;;;;;;4.05;1.38;;;3.80;99.90;;;;;;5049251;28;20229;-53
2022/04/08 05:11:00;;;;;;;1.80;1.30;;;3.80;99.90;;;;;;5050079;28;20305;-53
2022/04/08 05:13:27;;;;;;;2.35;1.30;;;3.80;99.90;;;;;;5049866;28;20202;-53
2022/04/08 05:15:54;;;;;;;2.45;1.20;;;3.80;99.90;;;;;;5050319;28;20198;-53
2022/04/08 05:18:23;;;;;;;2.03;1.38;;;3.80;99.90;;;;;;5049286;28;20577;-53
2022/04/08 05:20:52;;;;;;;3.35;1.20;;;3.70;99.90;;;;;;5036703;28;20633;-52
2022/04/08 05:23:19;;;;;;;2.22;1.23;;;3.70;99.90;;;;;;5035790;28;20209;-53
2022/04/08 05:25:46;;;;;;;2.78;1.05;;;3.70;99.90;;;;;;5035949;28;20206;-53
2022/04/08 05:28:15;;;;;;;4.22;1.20;;;3.60;99.90;;;;;;5036237;28;20341;-53
2022/04/08 05:30:43;;;;;;;1.92;1.25;;;3.70;99.90;;;;;;5036148;28;20249;-53
2022/04/08 05:33:10;;;;;;;1.45;1.25;;;3.60;99.90;;;;;;5036217;28;20218;-53
2022/04/08 05:35:38;;;;;;;2.55;0.80;;;3.70;99.90;;;;;;5036346;28;20209;-53
2022/04/08 05:38:06;;;;;;;2.45;1.08;;;3.70;99.90;;;;;;5036344;28;20310;-53
2022/04/08 05:40:33;;;;;;;2.45;1.23;;;3.70;99.90;;;;;;5035763;28;20297;-53
2022/04/08 05:43:00;;;;;;;1.65;1.23;;;3.80;99.90;;;;;;5035896;28;20202;-53
2022/04/08 05:45:28;;;;;;;5.75;1.27;;;3.90;99.90;;;;;;5035791;28;20404;-53
2022/04/08 05:47:55;;;;;;;1.40;1.00;;;4.10;99.90;;;;;;5036079;28;20226;-54
2022/04/08 05:50:23;;;;;;;1.40;1.00;;;4.20;99.90;;;;;;5035685;28;20297;-53
2022/04/08 05:52:52;;;;;;;3.70;2.05;;;4.40;99.90;;;;;;5035763;28;20230;-53
2022/04/08 05:55:19;;;;;;;2.47;1.30;;;4.50;99.90;;;;;;5035746;28;20572;-53
2022/04/08 05:57:47;;;;;;;4.43;1.42;;;4.60;99.90;;;;;;5035507;28;20234;-54
2022/04/08 06:00:17;;;;;;;4.90;1.20;;;4.60;99.90;;;;;;5036021;28;20210;-53
2022/04/08 06:02:45;;;;;;;1.75;1.30;;;4.60;99.90;;;;;;5035932;28;20207;-53
2022/04/08 06:05:15;;;;;;;2.72;1.60;;;4.60;99.90;;;;;;5036415;28;20723;-52
2022/04/08 06:07:46;;;;;;;5.68;1.75;;;4.60;99.90;;;;;;5034801;28;20229;-53
2022/04/08 06:10:18;;;;;;;2.95;1.30;;;4.70;99.90;;;;;;5035208;28;20191;-53
2022/04/08 06:12:46;;;;;;;3.05;1.50;;;4.70;99.90;;;;;;5035119;28;20183;-53
2022/04/08 06:15:14;;;;;;;6.05;1.55;;;4.80;99.90;;;;;;5034638;28;20732;-54
2022/04/08 06:17:41;;;;;;;2.80;1.25;;;4.90;99.90;;;;;;5035061;28;20228;-54
2022/04/08 06:20:11;;;;;;;4.15;1.45;;;4.90;99.90;;;;;;5034689;28;20214;-55
2022/04/08 06:22:39;;;;;;;4.45;1.65;;;5.10;99.90;;;;;;5034931;28;20634;-54
2022/04/08 06:25:08;;;;;;;7.25;1.77;;;5.10;99.90;;;;;;5034681;28;20253;-52
2022/04/08 06:27:37;;;;;;;3.63;1.63;;;5.20;99.90;;;;;;5035619;28;20226;-55
2022/04/08 06:30:09;;;;;;;6.53;1.80;;;5.30;99.90;;;;;;5034281;28;20230;-54
2022/04/08 06:32:36;;;;;;;3.70;1.70;;;5.30;99.90;;;;;;5033724;28;20275;-54
2022/04/08 06:35:04;;;;;;;4.70;1.83;;;5.40;99.90;;;;;;5034343;28;20198;-54
2022/04/08 06:37:32;;;;;;;10.07;3.15;;;5.40;99.90;;;;;;5034058;28;20217;-53
2022/04/08 06:40:04;;;;;;;4.22;2.00;;;5.50;99.90;;;;;;5034977;28;20205;-53
2022/04/08 06:42:31;;;;;;;4.35;1.67;;;5.50;99.90;;;;;;5034297;28;20604;-54
2022/04/08 06:45:00;;;;;;;6.13;2.10;;;5.40;99.90;;;;;;5034505;28;20213;-53
2022/04/08 06:47:27;;;;;;;6.00;2.47;;;5.30;99.90;;;;;;5034018;28;20204;-53
2022/04/08 06:49:54;;;;;;;3.83;2.00;;;5.20;99.90;;;;;;5034364;28;20223;-55
2022/04/08 06:52:21;;;;;;;4.20;1.60;;;5.10;99.90;;;;;;5034301;28;20662;-54
2022/04/08 06:54:48;;;;;;;1.83;1.10;;;5.00;99.90;;;;;;5034056;28;20225;-54
2022/04/08 06:57:15;;;;;;;2.75;1.60;;;4.70;99.90;;;;;;5033842;28;20202;-56
2022/04/08 06:59:43;;;;;;;1.73;0.98;;;4.40;99.90;;;;;;5033713;28;20202;-54
2022/04/08 07:02:12;;;;;;;6.45;1.55;;;4.10;99.90;;;;;;5033605;28;20202;-55
2022/04/08 07:04:39;;;;;;;2.10;1.70;;;4.00;99.90;;;;;;5034088;28;20298;-54
2022/04/08 07:07:06;;;;;;;5.38;2.00;;;4.00;99.90;;;;;;5034083;28;20202;-54
2022/04/08 07:09:33;;;;;;;15.38;2.25;;;4.00;99.90;;;;;;5033756;28;20227;-54
2022/04/08 07:12:01;;;;;;;2.45;1.95;;;4.00;99.90;;;;;;5033905;28;20230;-54
2022/04/08 07:14:28;;;;;;;8.02;2.42;;;4.10;99.90;;;;;;5033596;28;20205;-54
2022/04/08 07:16:55;;;;;;;11.05;2.58;;;4.20;99.90;;;;;;5033624;28;20363;-54
2022/04/08 07:19:24;;;;;;;6.03;2.28;;;4.40;99.90;;;;;;5033525;28;20853;-54
2022/04/08 07:21:51;;;;;;;5.65;2.42;;;4.60;99.90;;;;;;5033407;28;20682;-54
2022/04/08 07:24:18;;;;;;;6.40;2.95;;;4.80;99.90;;;;;;5033332;28;20698;-54
2022/04/08 07:26:45;;;;;;;9.43;2.63;;;4.90;99.90;;;;;;5033308;28;20207;-54
2022/04/08 07:29:13;;;;;;;9.32;4.72;;;5.00;99.90;;;;;;5033442;28;20237;-54
2022/04/08 07:31:40;;;;;;;7.15;2.83;;;5.10;99.90;;;;;;5033365;28;20578;-54
2022/04/08 07:34:07;;;;;;;5.72;2.83;;;5.30;99.90;;;;;;5033181;28;20304;-54
2022/04/08 07:36:35;;;;;;;5.45;2.92;;;5.40;99.90;;;;;;5033244;28;20211;-55
2022/04/08 07:39:03;;;;;;;7.00;2.80;;;5.50;99.90;;;;;;5033561;28;20628;-55
2022/04/08 07:41:30;;;;;;;7.03;2.95;;;5.60;99.90;;;;;;5033055;28;20529;-55
2022/04/08 07:43:57;;;;;;;5.25;2.70;;;5.80;99.90;;;;;;5032958;28;20202;-54
2022/04/08 07:46:24;;;;;;;8.05;2.80;;;6.10;99.90;;;;;;5033430;28;20202;-53
2022/04/08 07:48:51;;;;;;;10.02;2.83;;;6.20;99.90;;;;;;5033780;28;20588;-55
2022/04/08 07:51:18;;;;;;;8.52;2.95;;;6.10;99.90;;;;;;5030954;28;20668;-54
2022/04/08 07:53:49;;;;;;;9.10;2.60;;;6.10;99.90;;;;;;5032381;28;20210;-53
2022/04/08 07:56:16;;;;;;;7.90;2.53;;;6.10;99.90;;;;;;5033227;28;20193;-53
2022/04/08 07:58:45;;;;;;;4.90;2.50;;;6.20;99.90;;;;;;5032642;28;20714;-53
2022/04/08 08:01:12;;;;;;;2.85;2.30;;;6.20;99.90;;;;;;5032340;28;20692;-53
2022/04/08 08:03:42;;;;;;;6.50;2.70;;;6.20;99.90;;;;;;5032124;28;20207;-54
2022/04/08 08:06:11;;;;;;;3.92;2.42;;;6.20;99.90;;;;;;5033243;28;20354;-53
2022/04/08 08:08:38;;;;;;;7.88;2.15;;;6.30;99.90;;;;;;5032785;28;20231;-53
2022/04/08 08:11:11;;;;;;;6.53;3.00;;;6.40;99.90;;;;;;5032205;28;20226;-54
2022/04/08 08:13:39;;;;;;;12.40;2.83;;;6.60;99.90;;;;;;5033021;28;20238;-54
2022/04/08 08:16:07;;;;;;;4.85;2.17;;;6.80;99.90;;;;;;5032595;28;20203;-53
2022/04/08 08:18:34;;;;;;;6.78;2.20;;;6.90;99.90;;;;;;5031829;28;20291;-53
2022/04/08 08:21:01;;;;;;;8.63;2.33;;;6.90;99.90;;;;;;5032740;28;20217;-52
2022/04/08 08:23:28;;;;;;;5.72;1.70;;;6.80;99.90;;;;;;5031872;28;20675;-53
2022/04/08 08:25:56;;;;;;;6.88;2.97;;;6.80;99.50;;;;;;5032665;28;20201;-54
2022/04/08 08:28:24;;;;;;;4.35;2.40;;;7.00;99.90;;;;;;5032281;28;20230;-54
2022/04/08 08:30:51;;;;;;;11.02;2.20;;;7.30;99.90;;;;;;5031524;28;20598;-54
2022/04/08 08:33:18;;;;;;;7.70;2.25;;;7.40;99.10;;;;;;5032151;28;20591;-54
2022/04/08 08:35:46;;;;;;;5.78;2.40;;;7.50;97.30;;;;;;5032548;28;20208;-54
2022/04/08 08:38:13;;;;;;;6.95;2.70;;;7.40;96.90;;;;;;5031564;28;20242;-54
2022/04/08 08:40:44;;;;;;;7.32;2.58;;;7.40;96.60;;;;;;5032030;28;20206;-54
2022/04/08 08:43:17;;;;;;;5.50;2.15;;;7.30;96.40;;;;;;5032637;28;20260;-53
2022/04/08 08:45:48;;;;;;;4.35;1.92;;;7.20;95.90;;;;;;5032620;28;20211;-53
2022/04/08 08:48:16;;;;;;;5.50;2.15;;;7.30;96.00;;;;;;5031259;28;20225;-54
2022/04/08 08:50:47;;;;;;;5.00;2.80;;;7.50;95.30;;;;;;5032531;28;20226;-54
2022/04/08 08:53:17;;;;;;;8.18;2.47;;;7.60;94.60;;;;;;5031209;28;20229;-54
2022/04/08 08:55:44;;;;;;;5.47;2.42;;;7.80;94.50;;;;;;5035110;28;20572;-53
2022/04/08 08:58:12;;;;;;;4.55;2.40;;;7.80;93.10;;;;;;5035648;28;20237;-54
2022/04/08 09:00:39;;;;;;;7.05;2.05;;;8.00;93.10;;;;;;5035363;28;20205;-53
2022/04/08 09:03:08;;;;;;;7.63;3.15;;;8.10;93.20;;;;;;5036171;28;20205;-55
2022/04/08 09:05:41;;;;;;;4.43;2.08;;;8.10;92.20;;;;;;5035924;28;20202;-56
2022/04/08 09:08:09;;;;;;;5.40;2.65;;;7.90;91.70;;;;;;5035990;28;20279;-55
2022/04/08 09:10:37;;;;;;;4.65;2.10;;;7.70;92.10;;;;;;5035558;28;20261;-54
2022/04/08 09:13:06;;;;;;;13.02;3.22;;;7.60;92.00;;;;;;5035757;28;20606;-52
2022/04/08 09:15:37;;;;;;;8.65;3.03;;;7.40;92.60;;;;;;5034960;28;20216;-53
2022/04/08 09:18:10;;;;;;;4.78;2.28;;;7.40;92.30;;;;;;5035667;28;20260;-54
2022/04/08 09:20:42;;;;;;;8.10;2.45;;;7.30;92.80;;;;;;5035700;28;20333;-53
2022/04/08 09:23:10;;;;;;;5.20;2.50;;;7.30;92.90;;;;;;5034712;28;20208;-55
2022/04/08 09:25:39;;;;;;;8.25;2.33;;;7.20;92.40;;;;;;5035907;28;20213;-54
2022/04/08 09:28:11;;;;;;;4.30;2.25;;;7.20;92.80;;;;;;5034421;28;20317;-55
2022/04/08 09:30:38;;;;;;;8.20;3.65;;;7.20;93.90;;;;;;5035590;28;20316;-54
2022/04/08 09:33:16;;;;;;;7.80;2.97;;;7.10;94.90;;;;;;5035366;28;20203;-54
2022/04/08 09:35:43;;;;;;;7.30;2.90;;;7.10;95.90;;;;;;5034441;28;20192;-54
2022/04/08 09:38:10;;;;;;;7.38;2.67;;;7.20;96.30;;;;;;5034818;28;20731;-54
2022/04/08 09:40:39;;;;;;;5.35;2.50;;;7.20;96.60;;;;;;5035127;28;20202;-54
2022/04/08 09:43:06;;;;;;;8.40;2.92;;;7.20;97.20;;;;;;5033297;28;20211;-55
2022/04/08 09:45:34;;;;;;;4.85;2.10;;;7.10;97.50;;;;;;5034997;28;20214;-54
2022/04/08 09:48:02;;;;;;;7.90;3.20;;;7.00;98.00;;;;;;5034788;28;20230;-54
2022/04/08 09:50:31;;;;;;;9.88;3.58;;;6.80;98.70;;;;;;5034991;28;20223;-54
2022/04/08 09:52:58;;;;;;;3.80;3.50;;;6.60;99.90;;;;;;5034194;28;20214;-55
2022/04/08 09:55:26;;;;;;;7.13;3.60;;;6.40;99.90;;;;;;5034881;28;20216;-55
2022/04/08 09:57:57;;;;;;;4.75;3.72;;;6.20;99.90;;;;;;5034586;28;20275;-54
2022/04/08 10:00:25;;;;;;;10.02;4.10;;;6.00;99.90;;;;;;5034187;28;20229;-54
2022/04/08 10:02:55;;;;;;;5.57;3.72;;;5.90;99.90;;;;;;5034741;28;20208;-53
2022/04/08 10:05:23;;;;;;;3.95;2.97;;;5.80;99.90;;;;;;5034711;28;20207;-53
2022/04/08 10:07:54;;;;;;;9.02;3.53;;;5.90;99.90;;;;;;5033603;28;20276;-53
2022/04/08 10:10:26;;;;;;;9.50;4.10;;;6.00;99.90;;;;;;5034567;28;20211;-55
2022/04/08 10:13:17;;;;;;;5.65;3.45;;;6.00;99.90;;;;;;5033729;28;20210;-53
2022/04/08 10:15:55;;;;;;;5.85;3.10;;;6.20;99.90;;;;;;5034682;28;20183;-55
2022/04/08 10:18:22;;;;;;;10.68;2.60;;;6.50;99.90;;;;;;5034164;28;20232;-55
2022/04/08 10:20:49;;;;;;;5.47;2.70;;;6.70;99.90;;;;;;5033644;28;20206;-56
2022/04/08 10:23:19;;;;;;;8.73;3.10;;;6.70;99.90;;;;;;5034533;28;20213;-54
2022/04/08 10:25:50;;;;;;;6.15;2.95;;;6.70;99.90;;;;;;5034232;28;20249;-53
2022/04/08 10:28:17;;;;;;;6.55;3.08;;;6.70;99.90;;;;;;5033564;28;20232;-55
2022/04/08 10:30:46;;;;;;;11.00;3.05;;;6.60;99.90;;;;;;5034654;28;20241;-54
2022/04/08 10:33:14;;;;;;;5.55;2.53;;;6.60;99.90;;;;;;5034477;28;20209;-54
2022/04/08 10:35:52;;;;;;;7.43;3.85;;;6.60;99.90;;;;;;5033536;28;20202;-56
2022/04/08 10:38:21;;;;;;;4.90;2.42;;;6.50;99.90;;;;;;5029267;28;20294;-56
2022/04/08 10:40:54;;;;;;;5.82;2.75;;;6.40;99.90;;;;;;5034073;28;20210;-54
2022/04/08 10:43:21;;;;;;;3.42;3.00;;;6.20;99.90;;;;;;5033655;28;20726;-54
2022/04/08 10:45:56;;;;;;;4.90;3.38;;;6.20;99.90;;;;;;5033099;28;20241;-54
2022/04/08 10:48:24;;;;;;;9.63;3.70;;;6.30;99.90;;;;;;5034170;28;20271;-55
2022/04/08 10:50:51;;;;;;;3.40;2.90;;;6.40;99.90;;;;;;5033513;28;20260;-55
2022/04/08 10:53:22;;;;;;;4.45;2.92;;;6.60;99.90;;;;;;5033937;28;20213;-53
2022/04/08 10:55:51;;;;;;;3.28;2.58;;;6.70;99.90;;;;;;5033261;28;20222;-54
2022/04/08 10:58:31;;;;;;;8.15;3.17;;;6.90;99.90;;;;;;5033278;28;20303;-56
2022/04/08 11:00:58;;;;;;;5.80;2.67;;;7.20;99.90;;;;;;5032809;28;20190;-55
2022/04/08 11:03:27;;;;;;;4.80;2.55;;;7.50;99.90;;;;;;5034161;28;20212;-54
2022/04/08 11:05:54;;;;;;;4.55;2.22;;;7.60;99.90;;;;;;5033517;28;20262;-53
2022/04/08 11:08:25;;;;;;;4.55;2.53;;;7.80;98.90;;;;;;5033309;28;20233;-54
2022/04/08 11:10:59;;;;;;;4.95;2.70;;;8.00;98.40;;;;;;5032804;28;20258;-55
2022/04/08 11:13:27;;;;;;;3.97;2.72;;;8.10;96.90;;;;;;5033831;28;20210;-53
2022/04/08 11:15:54;;;;;;;7.30;2.75;;;8.20;96.00;;;;;;5033955;28;20227;-54
2022/04/08 11:18:22;;;;;;;3.08;2.50;;;8.30;95.80;;;;;;5032241;28;20234;-54
2022/04/08 11:20:50;;;;;;;3.92;2.95;;;8.30;95.30;;;;;;5033843;28;20293;-54
2022/04/08 11:23:28;;;;;;;6.07;2.45;;;8.50;94.90;;;;;;5033832;28;20248;-55
2022/04/08 11:25:55;;;;;;;3.95;3.00;;;8.60;94.20;;;;;;5032664;28;20556;-54
2022/04/08 11:28:23;;;;;;;3.72;2.80;;;8.70;94.20;;;;;;5032125;28;20221;-54
2022/04/08 11:30:56;;;;;;;4.88;2.63;;;8.90;93.90;;;;;;5033447;28;20588;-54
2022/04/08 11:33:23;;;;;;;5.68;2.85;;;8.90;93.00;;;;;;5033772;28;20201;-54
2022/04/08 11:35:57;;;;;;;4.57;2.58;;;9.00;92.30;;;;;;5032581;28;20213;-54
2022/04/08 11:38:26;;;;;;;5.68;2.88;;;8.90;92.20;;;;;;5033753;28;20253;-55
2022/04/08 11:40:53;;;;;;;4.40;2.50;;;8.80;91.40;;;;;;5033563;28;20217;-54
2022/04/08 11:43:21;;;;;;;5.82;2.72;;;8.70;91.20;;;;;;5032896;28;20238;-56
2022/04/08 11:45:50;;;;;;;4.60;2.40;;;8.70;91.00;;;;;;5032995;28;20283;-53
2022/04/08 11:48:19;;;;;;;4.32;2.40;;;8.90;90.70;;;;;;5032851;28;20219;-53
2022/04/08 11:50:47;;;;;;;7.97;2.08;;;9.00;88.80;;;;;;5033317;28;20246;-53
2022/04/08 11:53:15;;;;;;;4.07;2.20;;;9.10;86.00;;;;;;5032500;28;20225;-54
2022/04/08 11:55:53;;;;;;;5.32;2.53;;;9.10;82.80;;;;;;5033200;28;20240;-54
2022/04/08 11:58:20;;;;;;;4.78;2.35;;;9.10;82.60;;;;;;5032585;28;20257;-55
2022/04/08 12:00:48;;;;;;;4.40;2.58;;;9.20;81.90;;;;;;5032339;28;20221;-54
2022/04/08 12:03:20;;;;;;;4.75;1.80;;;9.30;79.00;;;;;;5032980;28;20226;-54
2022/04/08 12:05:48;;;;;;;4.15;2.25;;;9.20;77.20;;;;;;5033002;28;20760;-54
2022/04/08 12:08:16;;;;;;;3.85;2.40;;;9.30;76.50;;;;;;5032157;28;20591;-56
2022/04/08 12:10:44;;;;;;;7.10;2.67;;;9.40;76.00;;;;;;5032984;28;20230;-54
2022/04/08 12:13:16;;;;;;;3.95;1.98;;;9.60;75.00;;;;;;5032868;28;20442;-55
2022/04/08 12:15:44;;;;;;;5.37;2.90;;;9.80;72.50;;;;;;5032547;28;20205;-55
2022/04/08 12:18:12;;;;;;;3.67;2.07;;;9.90;72.00;;;;;;5032320;28;20559;-55
2022/04/08 12:20:41;;;;;;;3.93;1.83;;;10.00;69.30;;;;;;5032381;28;20449;-55
2022/04/08 12:23:11;;;;;;;3.00;2.07;;;10.10;67.40;;;;;;5032809;28;20456;-56
2022/04/08 12:25:38;;;;;;;2.80;2.00;;;10.10;66.80;;;;;;5031685;28;20450;-55
2022/04/08 12:28:12;;;;;;;5.77;2.03;;;10.30;66.10;;;;;;5032456;28;20469;-55
2022/04/08 12:30:40;;;;;;;6.63;2.40;;;10.50;65.10;;;;;;5035492;28;20505;-56
2022/04/08 12:33:07;;;;;;;8.10;1.97;;;10.60;63.70;;;;;;5035046;28;20958;-56
2022/04/08 12:35:35;;;;;;;2.93;2.13;;;10.70;62.10;;;;;;5036662;28;20485;-55
2022/04/08 12:38:04;;;;;;;4.90;2.20;;;10.50;60.80;;;;;;5036213;28;20786;-55
2022/04/08 12:40:32;;;;;;;2.63;2.00;;;10.40;61.00;;;;;;5036587;28;20994;-55
2022/04/08 12:43:00;;;;;;;5.90;2.63;;;10.20;61.00;;;;;;5035377;28;20484;-55
2022/04/08 12:45:29;;;;;;;5.47;2.17;;;10.00;61.40;;;;;;5036296;28;20456;-53
2022/04/08 12:47:57;;;;;;;3.40;2.10;;;9.90;62.80;;;;;;5037145;28;20501;-55
2022/04/08 12:50:24;;;;;;;6.23;2.43;;;9.90;63.00;;;;;;5035307;28;20502;-55
2022/04/08 12:52:52;;;;;;;3.07;2.60;;;9.80;63.50;;;;;;5035946;28;20449;-54
2022/04/08 12:55:19;;;;;;;3.23;2.33;;;10.00;62.80;;;;;;5036525;28;20459;-55
2022/04/08 12:57:48;;;;;;;2.70;2.10;;;10.20;61.50;;;;;;5035189;28;20545;-56
2022/04/08 13:00:16;;;;;;;9.90;3.00;;;10.40;61.30;;;;;;5035079;28;21027;-55
2022/04/08 13:02:46;;;;;;;5.87;2.23;;;10.60;61.40;;;;;;5036460;28;20445;-55